createdAt,value
2022-11-16T00:02:31.069Z,31.08
2022-11-16T00:05:35.649Z,32.15
2022-11-16T00:08:45.752Z,32.42
2022-11-16T00:11:53.946Z,32.35
2022-11-16T00:14:58.402Z,32.42
2022-11-16T00:18:02.909Z,30.35
2022-11-16T00:21:09.500Z,31.08
2022-11-16T00:24:16.512Z,33.83
2022-11-16T00:27:24.272Z,31.95
2022-11-16T00:30:29.275Z,32.53
2022-11-16T00:33:34.862Z,31.33
2022-11-16T00:36:39.213Z,32.88
2022-11-16T00:39:43.774Z,33.05
2022-11-16T00:42:48.669Z,31.70
2022-11-16T00:45:53.555Z,32.80
2022-11-16T00:48:57.914Z,33.83
2022-11-16T00:52:02.313Z,32.53
2022-11-16T00:55:07.677Z,31.88
2022-11-16T00:58:13.961Z,31.08
2022-11-16T01:01:19.710Z,30.90
2022-11-16T01:04:24.565Z,33.08
2022-11-16T01:07:42.021Z,31.60
2022-11-16T01:10:46.272Z,31.17
2022-11-16T01:13:51.083Z,31.33
2022-11-16T01:17:03.286Z,29.90
2022-11-16T01:20:19.319Z,31.75
2022-11-16T01:24:12.829Z,31.77
2022-11-16T01:27:23.215Z,30.48
2022-11-16T01:30:33.930Z,32.45
2022-11-16T01:33:41.687Z,30.35
2022-11-16T01:42:46.680Z,31.48
2022-11-16T01:46:51.964Z,29.17
2022-11-16T01:57:53.232Z,31.20
2022-11-16T02:01:00.287Z,29.25
2022-11-16T02:13:27.597Z,28.33
2022-11-16T02:17:07.642Z,29.23
2022-11-16T02:21:15.200Z,29.67
2022-11-16T02:28:16.305Z,29.35
2022-11-16T02:32:09.740Z,28.65
2022-11-16T02:35:59.090Z,28.25
2022-11-16T02:39:17.546Z,27.80
2022-11-16T02:42:44.135Z,28.90
2022-11-16T02:50:26.159Z,29.10
2022-11-16T02:54:07.047Z,28.92
2022-11-16T02:58:20.169Z,28.30
2022-11-16T03:01:43.301Z,27.52
2022-11-16T03:05:09.882Z,27.40
2022-11-16T03:08:41.095Z,26.67
2022-11-16T03:12:07.692Z,27.40
2022-11-16T03:15:25.415Z,25.88
2022-11-16T03:19:26.874Z,25.67
2022-11-16T03:22:55.704Z,26.00
2022-11-16T03:26:05.261Z,25.55
2022-11-16T03:29:29.249Z,27.08
2022-11-16T03:33:00.278Z,26.50
2022-11-16T03:36:23.263Z,26.70
2022-11-16T03:39:37.435Z,26.30
2022-11-16T03:42:52.805Z,25.00
2022-11-16T03:46:18.515Z,27.27
2022-11-16T03:49:53.691Z,24.77
2022-11-16T03:53:14.502Z,25.85
2022-11-16T03:56:27.327Z,25.48
2022-11-16T03:59:52.807Z,26.92
2022-11-16T04:07:08.165Z,26.08
2022-11-16T04:14:40.893Z,27.75
2022-11-16T04:18:12.555Z,24.48
2022-11-16T04:22:00.066Z,27.30
2022-11-16T04:25:15.841Z,26.90
2022-11-16T04:28:26.156Z,25.90
2022-11-16T04:31:49.410Z,27.10
2022-11-16T04:38:41.721Z,25.92
2022-11-16T04:42:11.148Z,26.90
2022-11-16T04:45:43.838Z,27.55
2022-11-16T04:48:59.551Z,27.30
2022-11-16T04:52:18.187Z,26.20
2022-11-16T04:55:34.277Z,26.67
2022-11-16T04:58:47.941Z,27.88
2022-11-16T05:02:20.550Z,28.05
2022-11-16T05:05:28.275Z,28.40
2022-11-16T05:08:42.553Z,28.83
2022-11-16T05:11:51.831Z,29.27
2022-11-16T05:14:57.249Z,28.50
2022-11-16T05:18:10.962Z,29.65
2022-11-16T05:21:18.256Z,31.50
2022-11-16T05:24:34.716Z,31.23
2022-11-16T05:27:50.284Z,32.25
2022-11-16T05:30:59.637Z,32.88
2022-11-16T05:34:04.352Z,31.58
2022-11-16T05:37:12.024Z,32.65
2022-11-16T05:40:26.008Z,32.75
2022-11-16T05:43:35.645Z,34.35
2022-11-16T05:46:42.661Z,31.80
2022-11-16T05:50:15.229Z,32.63
2022-11-16T05:53:19.912Z,32.15
2022-11-16T05:56:29.256Z,33.38
2022-11-16T05:59:52.959Z,33.25
2022-11-16T06:02:57.298Z,34.07
2022-11-16T06:06:04.118Z,33.33
2022-11-16T06:09:11.244Z,31.98
2022-11-16T06:12:16.604Z,33.03
2022-11-16T06:15:27.122Z,33.03
2022-11-16T06:18:32.621Z,33.00
2022-11-16T06:21:37.443Z,34.85
2022-11-16T06:24:42.323Z,33.15
2022-11-16T06:27:46.509Z,31.15
2022-11-16T06:30:51.296Z,33.40
2022-11-16T06:33:55.816Z,33.78
2022-11-16T06:37:00.204Z,31.75
2022-11-16T06:40:06.298Z,32.97
2022-11-16T06:43:11.042Z,32.72
2022-11-16T06:46:15.556Z,31.67
2022-11-16T06:49:22.927Z,34.28
2022-11-16T06:52:26.986Z,32.78
2022-11-16T06:55:31.952Z,32.70
2022-11-16T06:58:37.338Z,32.75
2022-11-16T07:01:43.057Z,33.78
2022-11-16T07:04:47.840Z,33.95
2022-11-16T07:07:55.871Z,31.80
2022-11-16T07:11:05.275Z,31.65
2022-11-16T07:14:13.315Z,33.75
2022-11-16T07:17:17.773Z,34.60
2022-11-16T07:20:23.094Z,34.90
2022-11-16T07:23:30.512Z,32.30
2022-11-16T07:26:36.286Z,31.90
2022-11-16T07:29:40.598Z,31.42
2022-11-16T07:35:48.686Z,31.27
2022-11-16T07:38:54.608Z,31.95
2022-11-16T07:41:59.320Z,32.92
2022-11-16T07:48:07.728Z,32.05
2022-11-16T07:51:17.163Z,29.85
2022-11-16T07:54:21.578Z,31.95
2022-11-16T07:57:26.019Z,32.08
2022-11-16T08:00:30.841Z,32.03
2022-11-16T08:03:36.430Z,31.02
2022-11-16T08:06:40.823Z,32.22
2022-11-16T08:09:45.230Z,31.08
2022-11-16T08:12:52.078Z,32.75
2022-11-16T08:16:13.663Z,32.38
2022-11-16T08:19:18.466Z,31.75
2022-11-16T08:25:41.659Z,29.08
2022-11-16T08:28:48.442Z,30.73
2022-11-16T08:31:53.090Z,29.90
2022-11-16T08:34:57.612Z,30.48
2022-11-16T08:38:02.408Z,31.05
2022-11-16T08:41:07.856Z,30.73
2022-11-16T08:44:12.562Z,28.73
2022-11-16T08:47:17.078Z,31.95
2022-11-16T08:50:21.400Z,31.08
2022-11-16T08:53:25.601Z,29.92
2022-11-16T08:56:33.729Z,31.38
2022-11-16T08:59:38.284Z,30.70
2022-11-16T09:02:43.161Z,28.85
2022-11-16T09:05:47.794Z,29.98
2022-11-16T09:08:52.535Z,31.75
2022-11-16T09:11:57.220Z,29.73
2022-11-16T09:15:01.893Z,30.17
2022-11-16T09:18:07.096Z,30.30
2022-11-16T09:21:12.679Z,30.23
2022-11-16T09:24:17.853Z,31.08
2022-11-16T09:27:22.891Z,30.58
2022-11-16T09:30:27.158Z,31.77
2022-11-16T09:33:34.429Z,30.83
2022-11-16T09:36:39.517Z,29.80
2022-11-16T09:39:44.225Z,31.60
2022-11-16T09:43:20.017Z,29.55
2022-11-16T09:46:34.751Z,31.85
2022-11-16T09:49:49.399Z,30.13
2022-11-16T09:53:00.177Z,32.10
2022-11-16T09:56:16.472Z,32.00
2022-11-16T09:59:40.685Z,32.13
2022-11-16T10:03:14.780Z,31.45
2022-11-16T10:06:47.798Z,31.35
2022-11-16T10:09:52.697Z,32.40
2022-11-16T10:13:28.790Z,30.23
2022-11-16T10:16:47.779Z,32.63
2022-11-16T10:20:30.392Z,31.38
2022-11-16T10:23:40.997Z,30.08
2022-11-16T10:27:21.840Z,29.83
2022-11-16T10:30:28.135Z,31.40
2022-11-16T10:33:35.734Z,29.95
2022-11-16T10:36:40.486Z,33.20
2022-11-16T10:39:50.771Z,31.30
2022-11-16T10:43:16.957Z,31.88
2022-11-16T10:46:30.665Z,31.85
2022-11-16T10:49:56.998Z,31.95
2022-11-16T10:53:01.806Z,33.40
2022-11-16T10:56:39.542Z,31.85
2022-11-16T10:59:50.652Z,34.15
2022-11-16T11:02:54.690Z,33.72
2022-11-16T11:05:59.764Z,33.72
2022-11-16T11:09:27.099Z,32.80
2022-11-16T11:12:40.517Z,32.65
2022-11-16T11:15:45.157Z,33.15
2022-11-16T11:18:52.399Z,33.30
2022-11-16T11:22:01.916Z,33.05
2022-11-16T11:26:12.325Z,32.47
2022-11-16T11:29:30.404Z,32.07
2022-11-16T11:32:40.202Z,33.38
2022-11-16T11:36:05.516Z,34.75
2022-11-16T11:39:13.119Z,32.28
2022-11-16T11:42:17.493Z,32.97
2022-11-16T11:49:01.541Z,32.83
2022-11-16T11:52:21.841Z,34.40
2022-11-16T11:55:26.653Z,34.50
2022-11-16T12:03:17.945Z,33.35
2022-11-16T12:07:12.727Z,32.55
2022-11-16T12:10:36.401Z,33.17
2022-11-16T12:14:59.461Z,35.00
2022-11-16T12:24:30.445Z,34.60
2022-11-16T12:28:44.914Z,33.70
2022-11-16T12:32:24.570Z,34.53
2022-11-16T13:13:59.928Z,34.22
2022-11-16T13:17:39.122Z,34.10
2022-11-16T13:21:28.508Z,33.92
2022-11-16T13:25:06.410Z,34.78
2022-11-16T13:29:32.915Z,31.88
2022-11-16T13:42:22.620Z,30.92
2022-11-16T13:46:55.197Z,31.30
2022-11-16T14:01:20.674Z,31.70
2022-11-16T14:05:04.986Z,31.33
2022-11-16T14:08:27.080Z,30.95
2022-11-16T14:12:19.678Z,30.80
2022-11-16T14:15:36.021Z,28.48
2022-11-16T14:19:01.979Z,29.40
2022-11-16T14:22:30.340Z,29.48
2022-11-16T14:26:07.259Z,33.10
2022-11-16T14:29:32.355Z,29.10
2022-11-16T14:32:46.884Z,27.65
2022-11-16T14:35:53.830Z,27.50
2022-11-16T14:39:29.153Z,26.92
2022-11-16T14:43:09.933Z,29.67
2022-11-16T14:46:32.759Z,27.40
2022-11-16T14:49:56.840Z,27.27
2022-11-16T14:53:15.719Z,27.80
2022-11-16T14:56:26.986Z,26.98
2022-11-16T14:59:38.754Z,25.85
2022-11-16T15:02:52.032Z,26.73
2022-11-16T15:06:36.223Z,28.13
2022-11-16T15:17:40.749Z,27.42
2022-11-16T15:21:34.544Z,31.60
2022-11-16T15:24:40.851Z,28.27
2022-11-16T15:28:28.141Z,25.60
2022-11-16T15:35:55.713Z,26.35
2022-11-16T15:39:03.730Z,27.92
2022-11-16T15:47:12.167Z,24.67
2022-11-16T15:50:30.085Z,24.08
2022-11-16T15:53:37.446Z,21.48
2022-11-16T15:56:42.592Z,21.77
2022-11-16T15:59:57.007Z,20.08
2022-11-16T16:06:37.853Z,20.05
2022-11-16T16:29:57.309Z,14.35
2022-11-16T17:55:09.821Z,12.40
2022-11-16T17:58:14.244Z,12.87
2022-11-16T18:01:28.745Z,12.80
2022-11-16T18:04:52.851Z,12.10
2022-11-16T18:08:12.861Z,11.88
2022-11-16T18:11:31.581Z,14.57
2022-11-16T18:14:40.119Z,13.30
2022-11-16T18:17:59.880Z,13.35
2022-11-16T18:21:26.389Z,12.73
2022-11-16T18:24:35.350Z,14.63
2022-11-16T18:27:40.367Z,14.95
2022-11-16T18:30:46.565Z,15.57
2022-11-16T18:34:15.352Z,16.35
2022-11-16T18:37:25.715Z,15.25
2022-11-16T18:40:30.595Z,16.35
2022-11-16T18:43:35.380Z,15.80
2022-11-16T18:46:59.895Z,17.55
2022-11-16T18:50:26.867Z,17.77
2022-11-16T18:53:33.895Z,18.58
2022-11-16T18:56:38.776Z,17.90
2022-11-16T18:59:43.918Z,17.83
2022-11-16T19:02:51.087Z,17.45
2022-11-16T19:06:00.804Z,19.70
2022-11-16T19:09:09.553Z,17.80
2022-11-16T19:12:14.449Z,17.45
2022-11-16T19:15:19.859Z,17.83
2022-11-16T19:18:24.375Z,17.70
2022-11-16T19:21:28.819Z,17.83
2022-11-16T19:24:33.487Z,17.75
2022-11-16T19:27:38.177Z,17.10
2022-11-16T19:30:42.970Z,17.35
2022-11-16T19:33:57.253Z,17.38
2022-11-16T19:37:05.762Z,21.08
2022-11-16T19:40:16.561Z,19.70
2022-11-16T19:43:22.457Z,17.95
2022-11-16T19:46:37.590Z,17.75
2022-11-16T19:49:45.026Z,18.73
2022-11-16T19:53:02.388Z,18.90
2022-11-16T19:56:19.918Z,18.80
2022-11-16T19:59:27.776Z,18.40
2022-11-16T20:02:45.463Z,17.15
2022-11-16T20:05:50.303Z,15.82
2022-11-16T20:09:00.929Z,15.63
2022-11-16T20:12:05.781Z,15.05
2022-11-16T20:15:10.894Z,15.38
2022-11-16T20:18:21.649Z,15.88
2022-11-16T20:21:48.387Z,14.05
2022-11-16T20:24:54.645Z,13.82
2022-11-16T20:27:58.861Z,13.18
2022-11-16T20:31:07.164Z,13.35
2022-11-16T20:34:14.960Z,13.88
2022-11-16T20:37:19.317Z,13.75
2022-11-16T20:40:25.093Z,14.38
2022-11-16T20:43:29.422Z,36.75
2022-11-16T20:46:34.277Z,48.13
2022-11-16T20:49:39.236Z,13.18
2022-11-16T20:52:47.261Z,13.10
2022-11-16T20:55:57.523Z,12.52
2022-11-16T20:59:02.476Z,13.68
2022-11-16T21:02:09.661Z,13.95
2022-11-16T21:05:14.084Z,12.27
2022-11-16T21:08:19.061Z,13.45
2022-11-16T21:11:27.274Z,12.13
2022-11-16T21:14:31.531Z,12.93
2022-11-16T21:17:36.617Z,13.02
2022-11-16T21:20:41.235Z,12.95
2022-11-16T21:23:51.496Z,12.30
2022-11-16T21:27:00.161Z,11.73
2022-11-16T21:30:07.159Z,13.02
2022-11-16T21:33:11.966Z,11.27
2022-11-16T21:36:19.333Z,12.88
2022-11-16T21:39:23.700Z,11.48
2022-11-16T21:42:28.473Z,11.43
2022-11-16T21:45:33.026Z,10.40
2022-11-16T21:48:38.107Z,11.23
2022-11-16T21:51:43.226Z,10.07
2022-11-16T21:54:47.681Z,10.80
2022-11-16T21:57:52.285Z,9.60
2022-11-16T22:00:59.247Z,9.75
2022-11-16T22:04:22.593Z,9.52
2022-11-16T22:07:32.993Z,9.10
2022-11-16T22:10:37.889Z,8.60
2022-11-16T22:13:43.656Z,9.13
2022-11-16T22:16:48.199Z,8.88
2022-11-16T22:19:52.618Z,7.45
2022-11-16T22:22:57.351Z,7.75
2022-11-16T22:26:04.405Z,8.05
2022-11-16T22:29:09.104Z,8.02
2022-11-16T22:32:13.314Z,7.30
2022-11-16T22:35:23.478Z,7.28
2022-11-16T22:38:30.875Z,7.72
2022-11-16T22:41:35.555Z,7.28
2022-11-16T22:44:39.699Z,6.88
2022-11-16T22:47:43.861Z,7.38
2022-11-16T22:50:51.627Z,6.88
2022-11-16T22:54:03.972Z,7.57
2022-11-16T22:57:08.670Z,5.95
2022-11-16T23:00:14.097Z,7.50
2022-11-16T23:03:18.620Z,6.15
2022-11-16T23:06:25.570Z,5.95
2022-11-16T23:09:34.084Z,6.40
2022-11-16T23:12:57.230Z,6.25
2022-11-16T23:16:05.059Z,5.63
2022-11-16T23:19:41.796Z,5.90
2022-11-16T23:23:04.760Z,5.63
2022-11-16T23:26:42.251Z,5.50
2022-11-16T23:29:48.542Z,5.53
2022-11-16T23:32:53.789Z,5.13
2022-11-16T23:36:02.669Z,5.63
2022-11-16T23:39:10.643Z,5.70
2022-11-16T23:42:33.738Z,5.32
2022-11-16T23:45:40.298Z,5.05
2022-11-16T23:48:45.108Z,5.30
2022-11-16T23:51:51.167Z,4.97
2022-11-16T23:54:55.854Z,5.35
2022-11-16T23:58:00.347Z,5.07
